Time;durP1;ratioP1;P1;durP2;ratioP2;P2;SDS_P1;SDS_P2;PMS_P1;PMS_P2;Temp;Humidity;BMP_temperature;BMP_pressure;BME280_temperature;BME280_humidity;BME280_pressure;Samples;Min_cycle;Max_cycle;Signal;HPM_P1;HPM_P2
2024/01/12 00:00:30;;;;;;;0.30;0.20;;;1.80;99.90;;;;;;5087996;28;20187;-75
2024/01/12 00:02:56;;;;;;;0.30;0.30;;;1.80;99.90;;;;;;5088803;28;20684;-74
2024/01/12 00:05:21;;;;;;;0.30;0.30;;;1.80;99.90;;;;;;5089789;28;20173;-75
2024/01/12 00:07:47;;;;;;;0.30;0.30;;;1.80;99.90;;;;;;5091287;28;20315;-76
2024/01/12 00:10:13;;;;;;;0.30;0.30;;;1.70;99.90;;;;;;5092947;28;20668;-76
2024/01/12 00:12:39;;;;;;;0.30;0.30;;;1.70;99.90;;;;;;5091403;28;20267;-75
2024/01/12 00:15:06;;;;;;;0.30;0.30;;;1.70;99.90;;;;;;5091674;28;20397;-75
2024/01/12 00:17:32;;;;;;;0.30;0.30;;;1.70;99.90;;;;;;5091383;28;20892;-75
2024/01/12 00:19:57;;;;;;;0.30;0.30;;;1.60;99.90;;;;;;5091434;28;20222;-75
2024/01/12 00:22:23;;;;;;;0.30;0.30;;;1.60;99.90;;;;;;5092670;28;20404;-75
2024/01/12 00:24:49;;;;;;;0.30;0.30;;;1.60;99.90;;;;;;5091403;28;20183;-75
2024/01/12 00:27:15;;;;;;;0.30;0.30;;;1.50;99.90;;;;;;5092827;28;20439;-74
2024/01/12 00:29:41;;;;;;;0.30;0.30;;;1.50;99.90;;;;;;5092482;28;20981;-75
2024/01/12 00:32:07;;;;;;;0.30;0.30;;;1.50;99.90;;;;;;5090504;28;20218;-75
2024/01/12 00:34:33;;;;;;;0.30;0.30;;;1.50;99.90;;;;;;5090846;28;20208;-75
2024/01/12 00:36:59;;;;;;;0.30;0.30;;;1.50;99.90;;;;;;5091201;28;20435;-76
2024/01/12 00:39:25;;;;;;;0.30;0.20;;;1.50;99.90;;;;;;5092148;28;20859;-75
2024/01/12 00:41:52;;;;;;;0.30;0.30;;;1.50;99.90;;;;;;5090930;28;20188;-74
2024/01/12 00:44:18;;;;;;;0.30;0.30;;;1.40;99.90;;;;;;5090787;28;20407;-76
2024/01/12 00:46:44;;;;;;;0.30;0.30;;;1.40;99.90;;;;;;5090646;28;20208;-75
2024/01/12 00:49:11;;;;;;;0.30;0.28;;;1.30;99.90;;;;;;5091684;28;20230;-75
2024/01/12 00:51:37;;;;;;;0.30;0.30;;;1.30;99.90;;;;;;5092289;28;20681;-76
2024/01/12 00:54:03;;;;;;;0.30;0.30;;;1.30;99.90;;;;;;5092161;28;20283;-75
2024/01/12 00:56:29;;;;;;;0.30;0.30;;;1.30;99.90;;;;;;5090639;28;20239;-74
2024/01/12 00:58:55;;;;;;;0.30;0.30;;;1.30;99.90;;;;;;5091909;28;20257;-76
2024/01/12 01:01:22;;;;;;;0.30;0.30;;;1.20;99.90;;;;;;5092767;28;20181;-75
2024/01/12 01:03:48;;;;;;;0.30;0.30;;;1.20;99.90;;;;;;5090617;28;20244;-74
2024/01/12 01:06:13;;;;;;;0.30;0.20;;;1.30;99.90;;;;;;5091996;28;20809;-75
2024/01/12 01:08:39;;;;;;;0.30;0.30;;;1.20;99.90;;;;;;5091977;28;20907;-74
2024/01/12 01:11:05;;;;;;;0.30;0.30;;;1.20;99.90;;;;;;5092209;28;20311;-74
2024/01/12 01:13:31;;;;;;;0.30;0.30;;;1.20;99.90;;;;;;5090359;28;20204;-75
2024/01/12 01:15:57;;;;;;;0.30;0.30;;;1.20;99.90;;;;;;5091926;28;20171;-76
2024/01/12 01:18:23;;;;;;;0.30;0.30;;;1.10;99.90;;;;;;5089787;28;20697;-76
2024/01/12 01:20:49;;;;;;;0.30;0.30;;;1.10;99.90;;;;;;5091610;28;20260;-76
2024/01/12 01:23:15;;;;;;;0.30;0.30;;;1.20;99.90;;;;;;5091552;28;20204;-75
2024/01/12 01:25:41;;;;;;;0.30;0.30;;;1.10;99.90;;;;;;5090205;28;20419;-75
2024/01/12 01:28:06;;;;;;;0.30;0.30;;;1.10;99.90;;;;;;5091313;28;20200;-75
2024/01/12 01:30:32;;;;;;;0.30;0.30;;;1.20;99.90;;;;;;5091721;28;20183;-75
2024/01/12 01:32:58;;;;;;;0.30;0.30;;;1.10;99.90;;;;;;5090010;28;20520;-74
2024/01/12 01:35:24;;;;;;;0.30;0.30;;;1.20;99.90;;;;;;5091795;28;20177;-75
2024/01/12 01:37:50;;;;;;;0.30;0.20;;;1.20;99.90;;;;;;5091000;28;20575;-74
2024/01/12 01:40:16;;;;;;;0.30;0.30;;;1.10;99.90;;;;;;5090017;28;20614;-74
2024/01/12 01:42:41;;;;;;;0.30;0.30;;;1.10;99.90;;;;;;5089618;28;20199;-75
2024/01/12 01:45:07;;;;;;;0.30;0.30;;;1.10;99.90;;;;;;5091350;28;20409;-74
2024/01/12 01:47:33;;;;;;;0.30;0.30;;;1.10;99.90;;;;;;5089605;28;20219;-74
2024/01/12 01:49:59;;;;;;;0.30;0.30;;;1.00;99.90;;;;;;5089525;28;20434;-75
2024/01/12 01:52:27;;;;;;;0.30;0.30;;;1.00;99.90;;;;;;5089493;28;20475;-74
2024/01/12 01:54:55;;;;;;;0.30;0.30;;;1.00;99.90;;;;;;5089610;28;20687;-75
2024/01/12 01:57:21;;;;;;;0.30;0.30;;;1.00;99.90;;;;;;5090851;28;20418;-75
2024/01/12 01:59:47;;;;;;;0.30;0.30;;;0.90;99.90;;;;;;5089817;28;20208;-76
2024/01/12 02:02:13;;;;;;;0.30;0.30;;;0.90;99.90;;;;;;5090940;28;20203;-76
2024/01/12 02:04:38;;;;;;;0.30;0.30;;;0.90;99.90;;;;;;5090499;28;20271;-74
2024/01/12 02:07:05;;;;;;;0.30;0.30;;;1.00;99.90;;;;;;5090393;28;20235;-75
2024/01/12 02:09:32;;;;;;;0.30;0.30;;;0.90;99.90;;;;;;5089214;28;20199;-75
2024/01/12 02:11:58;;;;;;;0.30;0.30;;;1.00;99.90;;;;;;5090458;28;20173;-75
2024/01/12 02:14:24;;;;;;;0.30;0.30;;;1.00;99.90;;;;;;5088857;28;20608;-74
2024/01/12 02:16:51;;;;;;;0.30;0.30;;;1.00;99.90;;;;;;5090488;28;20702;-76
2024/01/12 02:19:16;;;;;;;0.30;0.30;;;1.00;99.90;;;;;;5090753;28;20607;-76
2024/01/12 02:21:42;;;;;;;0.30;0.30;;;1.00;99.90;;;;;;5090394;28;20254;-74
2024/01/12 02:24:08;;;;;;;0.30;0.30;;;1.00;99.90;;;;;;5088934;28;20200;-75
2024/01/12 02:26:34;;;;;;;0.30;0.30;;;1.10;99.90;;;;;;5089025;28;20219;-74
2024/01/12 02:29:02;;;;;;;0.30;0.30;;;1.10;99.90;;;;;;5088228;28;20427;-76
2024/01/12 02:31:29;;;;;;;0.30;0.30;;;1.00;99.90;;;;;;5090101;28;20208;-74
2024/01/12 02:33:55;;;;;;;0.30;0.30;;;1.00;99.90;;;;;;5089187;28;20571;-74
2024/01/12 02:36:20;;;;;;;0.30;0.30;;;1.00;99.90;;;;;;5090432;28;20248;-75
2024/01/12 02:38:49;;;;;;;0.30;0.30;;;0.90;99.90;;;;;;5088435;28;20453;-75
2024/01/12 02:41:15;;;;;;;0.30;0.30;;;0.90;99.90;;;;;;5090551;28;20391;-75
2024/01/12 02:43:40;;;;;;;0.30;0.30;;;0.90;99.90;;;;;;5089918;28;20200;-75
2024/01/12 02:46:06;;;;;;;0.30;0.30;;;0.80;99.90;;;;;;5090093;28;20237;-76
2024/01/12 02:48:32;;;;;;;0.30;0.30;;;0.80;99.90;;;;;;5088035;28;20295;-74
2024/01/12 02:50:57;;;;;;;0.30;0.30;;;0.80;99.90;;;;;;5088582;28;20183;-75
2024/01/12 02:53:23;;;;;;;0.30;0.30;;;0.70;99.90;;;;;;5088290;28;20756;-76
2024/01/12 02:55:49;;;;;;;0.30;0.30;;;0.70;99.90;;;;;;5090271;28;20173;-75
2024/01/12 02:58:14;;;;;;;0.30;0.30;;;0.70;99.90;;;;;;5088761;28;20712;-75
2024/01/12 03:00:40;;;;;;;0.30;0.30;;;0.60;99.90;;;;;;5090143;28;20180;-76
2024/01/12 03:03:06;;;;;;;0.30;0.30;;;0.60;99.90;;;;;;5088408;28;20230;-75
2024/01/12 03:05:31;;;;;;;0.30;0.30;;;0.60;99.90;;;;;;5088630;28;20179;-74
2024/01/12 03:07:57;;;;;;;0.30;0.30;;;0.50;99.90;;;;;;5087550;28;20246;-74
2024/01/12 03:10:23;;;;;;;0.30;0.30;;;0.50;99.90;;;;;;5089878;28;20379;-75
2024/01/12 03:12:49;;;;;;;0.30;0.30;;;0.60;99.90;;;;;;5089933;28;20245;-75
2024/01/12 03:15:14;;;;;;;0.30;0.30;;;0.60;99.90;;;;;;5089724;28;20441;-75
2024/01/12 03:17:40;;;;;;;0.30;0.30;;;0.60;99.90;;;;;;5088171;28;20430;-74
2024/01/12 03:20:08;;;;;;;0.30;0.30;;;0.70;99.90;;;;;;5089632;28;20176;-75
2024/01/12 03:22:34;;;;;;;0.30;0.30;;;0.70;99.90;;;;;;5088067;28;20482;-75
2024/01/12 03:25:00;;;;;;;0.30;0.30;;;0.70;99.90;;;;;;5088122;28;20186;-76
2024/01/12 03:27:27;;;;;;;0.30;0.30;;;0.70;99.90;;;;;;5088262;28;20216;-75
2024/01/12 03:29:53;;;;;;;0.30;0.30;;;0.70;99.90;;;;;;5089576;28;20580;-76
2024/01/12 03:32:19;;;;;;;0.30;0.30;;;0.80;99.90;;;;;;5089682;28;20184;-74
2024/01/12 03:34:44;;;;;;;0.30;0.30;;;0.80;99.90;;;;;;5086655;28;20295;-75
2024/01/12 03:37:10;;;;;;;0.30;0.30;;;0.90;99.90;;;;;;5088243;28;20600;-74
2024/01/12 03:39:36;;;;;;;0.30;0.30;;;0.90;99.90;;;;;;5089223;28;20275;-76
2024/01/12 03:42:01;;;;;;;0.30;0.30;;;0.90;99.90;;;;;;5092578;28;20219;-75
2024/01/12 03:44:27;;;;;;;0.30;0.30;;;0.90;99.90;;;;;;5092063;28;20245;-75
2024/01/12 03:46:53;;;;;;;0.30;0.30;;;0.90;99.90;;;;;;5093751;28;20265;-75
2024/01/12 03:49:19;;;;;;;0.30;0.30;;;0.90;99.90;;;;;;5092639;28;20688;-76
2024/01/12 03:51:47;;;;;;;0.30;0.30;;;0.90;99.90;;;;;;5093648;28;20544;-76
2024/01/12 03:54:12;;;;;;;0.35;0.35;;;0.80;99.90;;;;;;5091190;28;20399;-75
2024/01/12 03:56:38;;;;;;;0.30;0.30;;;0.90;99.90;;;;;;5093298;28;20176;-76
2024/01/12 03:59:04;;;;;;;0.30;0.30;;;0.80;99.90;;;;;;5092958;28;20200;-75
2024/01/12 04:01:29;;;;;;;0.30;0.30;;;0.80;99.90;;;;;;5093841;28;20260;-74
2024/01/12 04:03:55;;;;;;;0.30;0.20;;;0.90;99.90;;;;;;5091625;28;20199;-74
2024/01/12 04:06:21;;;;;;;0.30;0.30;;;1.10;99.90;;;;;;5093329;28;20204;-75
2024/01/12 04:08:46;;;;;;;0.30;0.30;;;1.10;99.90;;;;;;5091583;28;20631;-75
2024/01/12 04:11:22;;;;;;;0.30;0.30;;;1.20;99.90;;;;;;5092827;28;20184;-74
2024/01/12 04:13:48;;;;;;;0.30;0.30;;;1.30;99.90;;;;;;5092878;28;21047;-76
2024/01/12 04:16:13;;;;;;;0.30;0.30;;;1.40;99.90;;;;;;5092947;28;20255;-74
2024/01/12 04:18:39;;;;;;;0.30;0.30;;;1.40;99.90;;;;;;5092705;28;20206;-76
2024/01/12 04:21:05;;;;;;;0.30;0.20;;;1.50;99.90;;;;;;5091857;28;20210;-75
2024/01/12 04:23:31;;;;;;;0.30;0.30;;;1.50;99.90;;;;;;5092463;28;20435;-76
2024/01/12 04:25:57;;;;;;;0.30;0.30;;;1.50;99.90;;;;;;5092705;28;20204;-76
2024/01/12 04:28:22;;;;;;;0.30;0.30;;;1.50;99.90;;;;;;5091213;28;20543;-76
2024/01/12 04:30:48;;;;;;;0.30;0.20;;;1.50;99.90;;;;;;5092722;28;20197;-74
2024/01/12 04:33:14;;;;;;;0.30;0.30;;;1.50;99.90;;;;;;5091122;28;20661;-76
2024/01/12 04:35:40;;;;;;;0.30;0.30;;;1.60;99.90;;;;;;5092259;28;20173;-75
2024/01/12 04:38:06;;;;;;;0.30;0.30;;;1.60;99.90;;;;;;5091794;28;20188;-76
2024/01/12 04:40:31;;;;;;;0.30;0.20;;;1.60;99.90;;;;;;5091221;28;20452;-76
2024/01/12 04:42:57;;;;;;;0.30;0.30;;;1.60;99.90;;;;;;5092059;28;20192;-76
2024/01/12 04:45:23;;;;;;;0.40;0.30;;;1.60;99.90;;;;;;5092685;28;20184;-76
2024/01/12 04:47:48;;;;;;;0.40;0.40;;;1.70;99.90;;;;;;5092062;28;20471;-76
2024/01/12 04:50:14;;;;;;;0.30;0.27;;;1.70;99.90;;;;;;5090518;28;20208;-76
2024/01/12 04:52:40;;;;;;;0.30;0.30;;;1.70;99.90;;;;;;5090889;28;20661;-76
2024/01/12 04:55:05;;;;;;;0.30;0.30;;;1.70;99.90;;;;;;5092290;28;20175;-76
2024/01/12 04:57:31;;;;;;;0.30;0.30;;;1.70;99.90;;;;;;5092097;28;20237;-75
2024/01/12 04:59:57;;;;;;;0.30;0.30;;;1.70;99.90;;;;;;5090678;28;20215;-76
2024/01/12 05:02:25;;;;;;;0.30;0.30;;;1.70;99.90;;;;;;5090674;28;20176;-74
2024/01/12 05:04:51;;;;;;;0.30;0.30;;;1.70;99.90;;;;;;5092051;28;20176;-74
2024/01/12 05:07:16;;;;;;;0.30;0.30;;;1.60;99.90;;;;;;5092075;28;20689;-76
2024/01/12 05:09:42;;;;;;;0.30;0.30;;;1.60;99.90;;;;;;5089320;28;20200;-77
2024/01/12 05:12:08;;;;;;;0.30;0.20;;;1.60;99.90;;;;;;5090492;28;20181;-76
2024/01/12 05:14:34;;;;;;;0.30;0.20;;;1.60;99.90;;;;;;5088880;28;20204;-77
2024/01/12 05:16:59;;;;;;;0.30;0.30;;;1.60;99.90;;;;;;5090311;28;20491;-78
2024/01/12 05:19:25;;;;;;;0.30;0.30;;;1.60;99.90;;;;;;5091145;28;20511;-76
2024/01/12 05:21:50;;;;;;;0.30;0.20;;;1.60;99.90;;;;;;5091368;28;20207;-75
2024/01/12 05:24:16;;;;;;;0.30;0.20;;;1.60;99.90;;;;;;5091130;28;20244;-77
2024/01/12 05:26:44;;;;;;;0.30;0.30;;;1.50;99.90;;;;;;5091461;28;20212;-77
2024/01/12 05:29:11;;;;;;;0.30;0.30;;;1.50;99.90;;;;;;5089071;28;20239;-77
2024/01/12 05:31:37;;;;;;;0.30;0.30;;;1.50;99.90;;;;;;5089202;28;20196;-76
2024/01/12 05:34:03;;;;;;;0.30;0.30;;;1.50;99.90;;;;;;5090695;28;20208;-77
2024/01/12 05:36:28;;;;;;;0.30;0.20;;;1.50;99.90;;;;;;5090306;28;20187;-76
2024/01/12 05:38:54;;;;;;;0.30;0.30;;;1.50;99.90;;;;;;5090811;28;20228;-76
2024/01/12 05:41:20;;;;;;;0.30;0.30;;;1.50;99.90;;;;;;5089859;28;20688;-77
2024/01/12 05:43:46;;;;;;;0.30;0.30;;;1.60;99.90;;;;;;5089278;28;20200;-77
2024/01/12 05:46:11;;;;;;;0.30;0.20;;;1.60;99.90;;;;;;5091301;28;20228;-76
2024/01/12 05:48:37;;;;;;;0.30;0.30;;;1.70;99.90;;;;;;5090637;28;20560;-76
2024/01/12 05:51:03;;;;;;;0.30;0.30;;;1.60;99.90;;;;;;5088874;28;20619;-77
2024/01/12 05:53:28;;;;;;;0.30;0.20;;;1.40;99.90;;;;;;5090135;28;20247;-75
2024/01/12 05:55:54;;;;;;;0.30;0.30;;;1.40;99.90;;;;;;5088054;28;20180;-76
2024/01/12 05:58:20;;;;;;;0.30;0.30;;;1.40;99.90;;;;;;5090512;28;20639;-75
2024/01/12 06:00:47;;;;;;;0.30;0.30;;;1.30;99.90;;;;;;5090554;28;20426;-75
2024/01/12 06:03:13;;;;;;;0.30;0.30;;;1.20;99.90;;;;;;5089001;28;20287;-77
2024/01/12 06:05:40;;;;;;;0.32;0.32;;;1.20;99.90;;;;;;5088459;28;20581;-75
2024/01/12 06:08:06;;;;;;;0.30;0.30;;;1.10;99.90;;;;;;5088564;28;20733;-75
2024/01/12 06:10:33;;;;;;;0.30;0.30;;;1.10;99.90;;;;;;5088847;28;20646;-76
2024/01/12 06:12:58;;;;;;;0.30;0.20;;;1.10;99.90;;;;;;5088580;28;20192;-76
2024/01/12 06:15:24;;;;;;;0.30;0.30;;;1.10;99.90;;;;;;5087459;28;20539;-76
2024/01/12 06:17:50;;;;;;;0.30;0.30;;;1.10;99.90;;;;;;5087705;28;20211;-77
2024/01/12 06:20:16;;;;;;;0.30;0.30;;;1.10;99.90;;;;;;5087884;28;20173;-75
2024/01/12 06:22:41;;;;;;;0.38;0.32;;;1.10;99.90;;;;;;5086464;28;20188;-76
2024/01/12 06:25:07;;;;;;;0.30;0.30;;;1.10;99.90;;;;;;5081125;28;20187;-73
2024/01/12 06:27:33;;;;;;;0.30;0.30;;;1.10;99.90;;;;;;5072571;28;20893;-77
2024/01/12 06:29:59;;;;;;;0.30;0.30;;;1.10;99.90;;;;;;5081834;28;20255;-81
2024/01/12 06:32:24;;;;;;;0.30;0.30;;;1.10;99.90;;;;;;5088553;28;20622;-80
2024/01/12 06:34:50;;;;;;;0.30;0.20;;;1.10;99.90;;;;;;5087067;28;20177;-80
2024/01/12 06:37:15;;;;;;;0.30;0.20;;;1.10;99.90;;;;;;5086785;28;20622;-77
2024/01/12 06:39:41;;;;;;;0.30;0.30;;;1.20;99.90;;;;;;5088938;28;20688;-74
2024/01/12 06:42:07;;;;;;;0.30;0.30;;;1.20;99.90;;;;;;5089518;28;20176;-78
2024/01/12 06:44:33;;;;;;;0.30;0.30;;;1.20;99.90;;;;;;5081040;28;20542;-79
2024/01/12 06:46:59;;;;;;;0.30;0.23;;;1.20;99.90;;;;;;5078118;28;20263;-76
2024/01/12 06:49:24;;;;;;;0.30;0.30;;;1.20;99.90;;;;;;5082093;28;20427;-79
2024/01/12 06:51:50;;;;;;;0.30;0.30;;;1.20;99.90;;;;;;5082313;28;20185;-78
2024/01/12 06:54:15;;;;;;;0.30;0.30;;;1.20;99.90;;;;;;5083888;28;20193;-78
2024/01/12 06:56:41;;;;;;;0.50;0.50;;;1.20;99.90;;;;;;5084211;28;20188;-77
2024/01/12 06:59:07;;;;;;;0.30;0.30;;;1.10;99.90;;;;;;5083005;28;20208;-77
2024/01/12 07:01:32;;;;;;;0.30;0.30;;;1.20;99.90;;;;;;5082098;28;20271;-77
2024/01/12 07:03:58;;;;;;;0.30;0.30;;;1.20;99.90;;;;;;5086473;28;20200;-76
2024/01/12 07:06:23;;;;;;;0.30;0.30;;;1.10;99.90;;;;;;5086977;28;20443;-77
2024/01/12 07:08:49;;;;;;;0.30;0.30;;;1.10;99.90;;;;;;5087382;28;20231;-77
2024/01/12 07:11:15;;;;;;;0.30;0.30;;;1.20;99.90;;;;;;5085854;28;20215;-76
2024/01/12 07:13:41;;;;;;;0.30;0.30;;;1.20;99.90;;;;;;5087375;28;20207;-76
2024/01/12 07:16:06;;;;;;;0.30;0.30;;;1.20;99.90;;;;;;5086103;28;20416;-77
2024/01/12 07:18:32;;;;;;;0.30;0.30;;;1.20;99.90;;;;;;5085916;28;20475;-76
2024/01/12 07:21:02;;;;;;;0.30;0.30;;;1.20;99.90;;;;;;5086508;28;20611;-76
2024/01/12 07:23:31;;;;;;;0.30;0.25;;;1.20;99.90;;;;;;5087025;28;20223;-76
2024/01/12 07:25:58;;;;;;;0.30;0.30;;;1.30;99.90;;;;;;5087791;28;20222;-76
2024/01/12 07:28:25;;;;;;;0.30;0.20;;;1.30;99.90;;;;;;5083315;28;20193;-76
2024/01/12 07:30:54;;;;;;;0.30;0.30;;;1.30;99.90;;;;;;5088102;28;20188;-76
2024/01/12 07:33:23;;;;;;;0.30;0.30;;;1.30;99.90;;;;;;5086447;28;20282;-77
2024/01/12 07:35:49;;;;;;;0.30;0.20;;;1.40;99.90;;;;;;5068529;28;20185;-77
2024/01/12 07:38:14;;;;;;;0.30;0.20;;;1.40;99.90;;;;;;5075929;28;20463;-76
2024/01/12 07:40:40;;;;;;;0.30;0.30;;;1.40;99.90;;;;;;5078679;28;20189;-76
2024/01/12 07:43:06;;;;;;;0.30;0.30;;;1.50;99.90;;;;;;5076220;28;20197;-77
2024/01/12 07:45:31;;;;;;;0.30;0.30;;;1.50;99.90;;;;;;5078188;28;20196;-76
2024/01/12 07:47:57;;;;;;;0.30;0.30;;;1.50;99.90;;;;;;5077787;28;20224;-76
2024/01/12 07:50:22;;;;;;;0.30;0.30;;;1.50;99.90;;;;;;5077166;28;20750;-76
2024/01/12 07:52:48;;;;;;;0.30;0.30;;;1.60;99.90;;;;;;5070902;28;20228;-76
2024/01/12 07:55:14;;;;;;;0.30;0.30;;;1.60;99.90;;;;;;5019638;28;21448;-77
2024/01/12 07:57:39;;;;;;;0.30;0.30;;;1.60;99.90;;;;;;5020679;28;20199;-76
2024/01/12 08:00:05;;;;;;;0.30;0.30;;;1.60;99.90;;;;;;5032542;28;20189;-77
2024/01/12 08:02:31;;;;;;;0.30;0.30;;;1.60;99.90;;;;;;5020955;28;20764;-77
2024/01/12 08:04:57;;;;;;;0.30;0.20;;;1.60;99.90;;;;;;5067495;28;20173;-76
2024/01/12 08:07:23;;;;;;;0.30;0.30;;;1.70;99.90;;;;;;5082911;28;20235;-77
2024/01/12 08:09:48;;;;;;;0.30;0.20;;;1.70;99.90;;;;;;5077261;28;20191;-76
2024/01/12 08:12:14;;;;;;;0.30;0.30;;;1.70;99.90;;;;;;5107183;28;20207;-77
2024/01/12 08:14:40;;;;;;;0.30;0.20;;;1.70;99.90;;;;;;5063566;28;20253;-77
2024/01/12 08:17:05;;;;;;;0.30;0.20;;;1.70;99.90;;;;;;5067301;28;20235;-77
2024/01/12 08:19:31;;;;;;;0.30;0.30;;;1.80;99.90;;;;;;5077828;28;20231;-77
2024/01/12 08:21:57;;;;;;;0.30;0.30;;;1.80;99.90;;;;;;5077415;28;20646;-77
2024/01/12 08:24:22;;;;;;;0.30;0.30;;;1.80;99.90;;;;;;5078779;28;20629;-77
2024/01/12 08:26:48;;;;;;;0.30;0.20;;;1.90;99.90;;;;;;5081018;28;20228;-77
2024/01/12 08:29:14;;;;;;;0.30;0.30;;;1.90;99.90;;;;;;5098372;27;20525;-76
2024/01/12 08:31:39;;;;;;;0.30;0.20;;;1.90;99.90;;;;;;5070483;28;20648;-76
2024/01/12 08:34:05;;;;;;;0.30;0.30;;;1.90;99.90;;;;;;5076103;28;20253;-77
2024/01/12 08:36:30;;;;;;;0.30;0.30;;;1.90;99.90;;;;;;5083531;28;20257;-76
2024/01/12 08:38:56;;;;;;;0.30;0.30;;;2.00;99.90;;;;;;5076059;28;20196;-76
2024/01/12 08:41:22;;;;;;;0.30;0.20;;;2.00;99.90;;;;;;5080229;28;20184;-77
2024/01/12 08:43:47;;;;;;;0.30;0.30;;;2.00;99.90;;;;;;5075185;28;20382;-77
2024/01/12 08:46:13;;;;;;;0.30;0.30;;;2.10;99.90;;;;;;5083342;28;20205;-76
2024/01/12 08:48:38;;;;;;;0.30;0.20;;;2.10;99.90;;;;;;5077164;28;20213;-76
2024/01/12 08:51:04;;;;;;;0.30;0.30;;;2.10;99.90;;;;;;5109818;27;20172;-77
2024/01/12 08:53:30;;;;;;;0.30;0.30;;;2.20;99.90;;;;;;5081765;28;20208;-77
2024/01/12 08:55:55;;;;;;;0.30;0.30;;;2.20;99.90;;;;;;5078752;28;20319;-77
2024/01/12 08:58:21;;;;;;;0.30;0.30;;;2.20;99.90;;;;;;5081066;28;20689;-77
2024/01/12 09:00:47;;;;;;;0.30;0.20;;;2.30;99.90;;;;;;5106755;27;20169;-77
2024/01/12 09:03:12;;;;;;;0.30;0.20;;;2.40;99.90;;;;;;5088158;28;20238;-76
2024/01/12 09:05:38;;;;;;;0.30;0.20;;;2.40;99.90;;;;;;5079821;28;20177;-76
2024/01/12 09:08:04;;;;;;;0.30;0.30;;;2.40;99.90;;;;;;5079132;28;20325;-77
2024/01/12 09:10:30;;;;;;;0.30;0.30;;;2.50;99.90;;;;;;5087659;28;20473;-76
2024/01/12 09:12:55;;;;;;;0.30;0.20;;;2.50;99.90;;;;;;5095541;28;20404;-77
2024/01/12 09:15:21;;;;;;;0.30;0.30;;;2.50;99.90;;;;;;5088730;28;20184;-77
2024/01/12 09:17:47;;;;;;;0.30;0.30;;;2.50;99.90;;;;;;5082536;28;20220;-77
2024/01/12 09:20:12;;;;;;;0.30;0.30;;;2.50;99.90;;;;;;5072148;28;20180;-75
2024/01/12 09:22:38;;;;;;;0.30;0.30;;;2.50;99.90;;;;;;5078599;28;20657;-75
2024/01/12 09:25:04;;;;;;;0.30;0.30;;;2.50;99.90;;;;;;5086457;28;20176;-75
2024/01/12 09:27:30;;;;;;;0.30;0.30;;;2.50;99.90;;;;;;5063941;28;20215;-75
2024/01/12 09:29:55;;;;;;;0.30;0.20;;;2.50;99.90;;;;;;5057779;28;20176;-76
2024/01/12 09:32:22;;;;;;;0.30;0.30;;;2.50;99.90;;;;;;5081207;28;20747;-75
2024/01/12 09:34:48;;;;;;;0.30;0.30;;;2.50;99.90;;;;;;5074737;28;20633;-75
2024/01/12 09:37:14;;;;;;;0.30;0.30;;;2.60;99.90;;;;;;5079693;28;20187;-75
2024/01/12 09:39:40;;;;;;;0.30;0.20;;;2.60;99.90;;;;;;5074161;28;21574;-75
2024/01/12 09:42:09;;;;;;;0.30;0.30;;;2.60;99.90;;;;;;5074193;28;20557;-75
2024/01/12 09:44:38;;;;;;;0.30;0.30;;;2.60;99.90;;;;;;5029683;28;20231;-75
2024/01/12 09:47:04;;;;;;;0.30;0.30;;;2.60;99.90;;;;;;5040460;27;22227;-75
2024/01/12 09:49:31;;;;;;;0.30;0.30;;;2.70;99.90;;;;;;5025921;28;20775;-75
2024/01/12 09:52:04;;;;;;;0.30;0.30;;;2.80;99.90;;;;;;5025800;28;20587;-77
2024/01/12 09:54:30;;;;;;;0.30;0.30;;;2.80;99.90;;;;;;5024666;28;20330;-76
2024/01/12 09:56:56;;;;;;;0.30;0.30;;;2.90;99.90;;;;;;5070433;28;20582;-76
2024/01/12 09:59:22;;;;;;;0.30;0.30;;;2.90;99.90;;;;;;5077513;28;20253;-76
2024/01/12 10:01:49;;;;;;;0.30;0.30;;;2.90;99.90;;;;;;5079881;28;21804;-75
2024/01/12 10:04:15;;;;;;;0.30;0.30;;;3.00;99.90;;;;;;5035766;28;20226;-76
2024/01/12 10:06:40;;;;;;;0.30;0.30;;;3.00;99.90;;;;;;5026833;28;20248;-75
2024/01/12 10:09:07;;;;;;;0.40;0.40;;;3.00;99.90;;;;;;5023638;28;22077;-75
2024/01/12 10:11:33;;;;;;;0.30;0.25;;;3.00;99.90;;;;;;5029026;28;20712;-76
2024/01/12 10:13:59;;;;;;;0.30;0.20;;;3.00;99.90;;;;;;5053302;28;20250;-75
2024/01/12 10:16:29;;;;;;;0.30;0.30;;;3.10;99.90;;;;;;5060297;28;20743;-76
2024/01/12 10:18:58;;;;;;;0.30;0.30;;;3.10;99.90;;;;;;5082726;28;20203;-75
2024/01/12 10:21:25;;;;;;;0.30;0.30;;;3.10;99.90;;;;;;5076464;28;20177;-76
2024/01/12 10:24:07;;;;;;;0.30;0.30;;;3.20;99.90;;;;;;5070515;28;20630;-76
2024/01/12 10:26:32;;;;;;;0.30;0.30;;;3.30;99.90;;;;;;5076273;28;20215;-76
2024/01/12 10:29:04;;;;;;;0.30;0.30;;;3.40;99.90;;;;;;5078698;28;20263;-75
2024/01/12 10:31:30;;;;;;;0.40;0.30;;;3.50;99.90;;;;;;5065144;28;20945;-75
2024/01/12 10:34:00;;;;;;;0.30;0.30;;;3.70;99.90;;;;;;5059770;28;20235;-76
2024/01/12 10:36:28;;;;;;;0.30;0.30;;;3.90;99.90;;;;;;5068595;28;20408;-75
2024/01/12 10:38:58;;;;;;;0.30;0.30;;;4.10;99.90;;;;;;5073474;28;20201;-76
2024/01/12 10:41:25;;;;;;;0.30;0.30;;;4.20;99.90;;;;;;5068257;28;20835;-75
2024/01/12 10:43:52;;;;;;;0.30;0.30;;;4.20;99.90;;;;;;5078950;28;20270;-75
2024/01/12 10:46:35;;;;;;;0.30;0.20;;;4.30;99.90;;;;;;5078545;28;20208;-75
2024/01/12 10:49:17;;;;;;;0.30;0.30;;;4.30;99.90;;;;;;5069122;28;20204;-76
2024/01/12 10:52:08;;;;;;;0.30;0.30;;;4.20;99.90;;;;;;5067689;28;20180;-75
2024/01/12 10:54:52;;;;;;;0.30;0.30;;;4.20;99.90;;;;;;5071935;28;20212;-76
2024/01/12 10:57:19;;;;;;;0.30;0.30;;;4.10;99.90;;;;;;5075993;28;20732;-75
2024/01/12 10:59:44;;;;;;;0.30;0.20;;;4.10;99.90;;;;;;5077015;28;20844;-75
2024/01/12 11:02:13;;;;;;;0.30;0.20;;;4.10;99.90;;;;;;5065021;28;20214;-75
2024/01/12 11:04:45;;;;;;;0.30;0.30;;;4.10;99.90;;;;;;5074970;28;20591;-76
2024/01/12 11:07:12;;;;;;;0.30;0.20;;;4.10;99.90;;;;;;5072636;28;20240;-76
2024/01/12 11:09:37;;;;;;;0.30;0.30;;;4.10;99.90;;;;;;5076713;28;20209;-76
2024/01/12 11:12:07;;;;;;;0.30;0.30;;;4.10;99.90;;;;;;5067827;28;20230;-75
2024/01/12 11:14:34;;;;;;;0.30;0.20;;;4.10;99.90;;;;;;5075946;28;20246;-76
2024/01/12 11:17:00;;;;;;;0.30;0.20;;;4.10;99.90;;;;;;5070301;28;20180;-76
2024/01/12 11:19:27;;;;;;;0.30;0.20;;;4.10;99.90;;;;;;5063498;28;20254;-75
2024/01/12 11:22:03;;;;;;;0.30;0.20;;;4.10;99.90;;;;;;5067578;28;20204;-76
2024/01/12 11:24:30;;;;;;;0.30;0.30;;;4.20;99.90;;;;;;5070729;28;20600;-76
2024/01/12 11:26:56;;;;;;;0.40;0.30;;;4.20;99.90;;;;;;5097772;28;20222;-75
2024/01/12 11:29:27;;;;;;;0.30;0.30;;;4.10;99.90;;;;;;5055620;28;20191;-76
2024/01/12 11:31:54;;;;;;;0.30;0.20;;;4.10;99.90;;;;;;5052128;28;20179;-74
2024/01/12 11:34:19;;;;;;;0.30;0.20;;;4.10;99.90;;;;;;5075112;28;20632;-75
2024/01/12 11:36:55;;;;;;;0.30;0.30;;;4.10;99.90;;;;;;5075971;28;20199;-74
2024/01/12 11:39:22;;;;;;;0.30;0.20;;;4.10;99.90;;;;;;5071576;28;20202;-75
2024/01/12 11:41:52;;;;;;;0.30;0.20;;;4.10;99.90;;;;;;5067704;28;20333;-74
2024/01/12 11:44:18;;;;;;;0.30;0.30;;;4.20;99.90;;;;;;5071424;28;20758;-75
2024/01/12 11:46:44;;;;;;;0.30;0.20;;;4.20;99.90;;;;;;5075911;28;20306;-75
2024/01/12 11:49:10;;;;;;;0.30;0.30;;;4.20;99.90;;;;;;5073093;28;20232;-75
2024/01/12 11:51:35;;;;;;;0.30;0.27;;;4.20;99.90;;;;;;5074895;28;20238;-75
2024/01/12 11:54:01;;;;;;;0.30;0.20;;;4.30;99.90;;;;;;5068243;28;20257;-75
2024/01/12 11:56:26;;;;;;;0.30;0.20;;;4.40;99.90;;;;;;5071635;28;20240;-74
2024/01/12 11:58:54;;;;;;;0.30;0.20;;;4.60;99.90;;;;;;5070811;28;20246;-74
2024/01/12 12:01:20;;;;;;;0.30;0.20;;;4.70;99.90;;;;;;5081517;28;20180;-75
2024/01/12 12:03:46;;;;;;;0.30;0.20;;;4.80;99.90;;;;;;5077353;28;20200;-74
2024/01/12 12:06:12;;;;;;;0.30;0.20;;;5.00;99.90;;;;;;5079058;28;20440;-74
2024/01/12 12:08:40;;;;;;;0.30;0.20;;;5.00;99.90;;;;;;5076554;28;20211;-74
2024/01/12 12:11:06;;;;;;;0.30;0.30;;;5.20;99.90;;;;;;5108796;27;20179;-74
2024/01/12 12:13:35;;;;;;;0.30;0.20;;;5.20;99.90;;;;;;5069607;28;20676;-74
2024/01/12 12:16:01;;;;;;;0.30;0.20;;;5.30;99.90;;;;;;5070721;28;20447;-74
2024/01/12 12:18:28;;;;;;;0.30;0.20;;;5.30;99.90;;;;;;5073201;28;20666;-75
2024/01/12 12:20:54;;;;;;;0.30;0.30;;;5.30;99.90;;;;;;5077320;28;20210;-74
2024/01/12 12:23:20;;;;;;;0.30;0.30;;;5.40;99.90;;;;;;5056949;28;20216;-75
2024/01/12 12:25:46;;;;;;;0.30;0.30;;;5.50;99.90;;;;;;5033841;28;20417;-74
2024/01/12 12:28:11;;;;;;;0.30;0.20;;;5.40;99.90;;;;;;5060538;28;20542;-75
2024/01/12 12:30:40;;;;;;;0.30;0.20;;;5.50;99.90;;;;;;5066569;28;20196;-75
2024/01/12 12:33:08;;;;;;;0.30;0.20;;;5.50;99.90;;;;;;5068174;28;20832;-75
2024/01/12 12:35:34;;;;;;;0.30;0.30;;;5.50;99.90;;;;;;5075789;28;20717;-76
2024/01/12 12:38:03;;;;;;;0.30;0.20;;;5.50;99.90;;;;;;5065150;28;20218;-74
2024/01/12 12:40:32;;;;;;;0.30;0.22;;;5.40;99.90;;;;;;5023854;28;20486;-75
2024/01/12 12:42:58;;;;;;;0.30;0.28;;;5.40;99.90;;;;;;5022760;28;20212;-74
2024/01/12 12:45:24;;;;;;;0.30;0.20;;;5.40;99.90;;;;;;5023620;28;20300;-74
2024/01/12 12:47:50;;;;;;;0.30;0.20;;;5.30;99.90;;;;;;5057387;28;20216;-74
2024/01/12 12:50:16;;;;;;;0.30;0.30;;;5.20;99.90;;;;;;5071999;28;20428;-75
2024/01/12 12:52:50;;;;;;;0.30;0.30;;;5.20;99.90;;;;;;5081005;28;20195;-75